createdAt,value
2022-10-23T00:01:24.600Z,97.11
2022-10-23T00:03:53.430Z,96.30
2022-10-23T00:06:20.563Z,95.49
2022-10-23T00:08:48.008Z,95.21
2022-10-23T00:11:17.958Z,95.00
2022-10-23T00:13:45.454Z,95.22
2022-10-23T00:16:12.251Z,97.69
2022-10-23T00:18:39.734Z,97.31
2022-10-23T00:21:08.088Z,100.00
2022-10-23T00:23:35.373Z,98.82
2022-10-23T00:26:02.911Z,99.85
2022-10-23T00:28:29.748Z,100.00
2022-10-23T00:30:56.491Z,100.00
2022-10-23T00:33:22.909Z,100.00
2022-10-23T00:35:49.336Z,100.00
2022-10-23T00:38:15.753Z,100.00
2022-10-23T00:40:44.065Z,100.00
2022-10-23T00:43:30.079Z,100.00
2022-10-23T00:45:57.069Z,100.00
2022-10-23T00:48:25.377Z,100.00
2022-10-23T00:50:52.356Z,100.00
2022-10-23T00:53:20.280Z,100.00
2022-10-23T00:55:50.293Z,100.00
2022-10-23T00:58:18.953Z,100.00
2022-10-23T01:00:55.898Z,100.00
2022-10-23T01:03:26.036Z,100.00
2022-10-23T01:06:13.329Z,100.00
2022-10-23T01:08:48.913Z,100.00
2022-10-23T01:11:24.744Z,100.00
2022-10-23T01:14:06.303Z,100.00
2022-10-23T01:17:00.259Z,100.00
2022-10-23T01:19:36.351Z,100.00
2022-10-23T01:22:32.168Z,100.00
2022-10-23T01:25:26.253Z,100.00
2022-10-23T01:27:58.512Z,100.00
2022-10-23T01:30:24.960Z,100.00
2022-10-23T01:32:58.786Z,100.00
2022-10-23T01:35:30.706Z,100.00
2022-10-23T01:38:13.119Z,100.00
2022-10-23T01:40:54.864Z,100.00
2022-10-23T01:43:27.923Z,100.00
2022-10-23T01:46:05.584Z,100.00
2022-10-23T01:48:35.446Z,100.00
2022-10-23T01:51:06.361Z,100.00
2022-10-23T01:53:38.434Z,100.00
2022-10-23T01:56:11.897Z,100.00
2022-10-23T01:58:40.723Z,100.00
2022-10-23T02:01:10.172Z,100.00
2022-10-23T02:03:38.543Z,100.00
2022-10-23T02:06:05.307Z,100.00
2022-10-23T02:08:32.102Z,100.00
2022-10-23T02:11:07.690Z,100.00
2022-10-23T02:13:38.395Z,100.00
2022-10-23T02:16:13.939Z,100.00
2022-10-23T02:18:52.117Z,100.00
2022-10-23T02:21:26.972Z,100.00
2022-10-23T02:24:07.547Z,100.00
2022-10-23T02:26:39.054Z,100.00
2022-10-23T02:29:18.459Z,100.00
2022-10-23T02:31:45.335Z,100.00
2022-10-23T02:34:11.774Z,100.00
2022-10-23T02:36:41.255Z,100.00
2022-10-23T02:39:07.706Z,100.00
2022-10-23T02:41:38.106Z,100.00
2022-10-23T02:44:25.741Z,100.00
2022-10-23T02:47:12.661Z,100.00
2022-10-23T02:50:04.022Z,100.00
2022-10-23T02:53:10.425Z,100.00
2022-10-23T02:56:34.457Z,100.00
2022-10-23T02:59:16.929Z,100.00
2022-10-23T03:01:52.932Z,100.00
2022-10-23T03:04:23.685Z,100.00
2022-10-23T03:06:51.532Z,100.00
2022-10-23T03:09:18.289Z,100.00
2022-10-23T03:11:44.710Z,100.00
2022-10-23T03:14:13.434Z,100.00
2022-10-23T03:16:40.114Z,100.00
2022-10-23T03:19:06.609Z,100.00
2022-10-23T03:21:33.054Z,100.00
2022-10-23T03:23:59.476Z,100.00
2022-10-23T03:26:25.933Z,100.00
2022-10-23T03:28:52.341Z,100.00
2022-10-23T03:31:18.848Z,100.00
2022-10-23T03:33:45.281Z,100.00
2022-10-23T03:36:12.161Z,100.00
2022-10-23T03:38:38.588Z,100.00
2022-10-23T03:41:05.297Z,100.00
2022-10-23T03:43:32.025Z,100.00
2022-10-23T03:45:58.727Z,100.00
2022-10-23T03:48:25.252Z,100.00
2022-10-23T03:50:53.183Z,100.00
2022-10-23T03:53:19.658Z,100.00
2022-10-23T03:55:46.128Z,100.00
2022-10-23T03:58:12.661Z,100.00
2022-10-23T04:00:39.111Z,100.00
2022-10-23T04:03:05.636Z,100.00
2022-10-23T04:05:32.044Z,100.00
2022-10-23T04:07:58.481Z,100.00
2022-10-23T04:10:24.913Z,100.00
2022-10-23T04:12:51.341Z,100.00
2022-10-23T04:15:17.863Z,100.00
2022-10-23T04:17:44.292Z,100.00
2022-10-23T04:20:10.748Z,100.00
2022-10-23T04:22:37.135Z,100.00
2022-10-23T04:25:03.804Z,100.00
2022-10-23T04:27:30.313Z,100.00
2022-10-23T04:29:59.012Z,100.00
2022-10-23T04:32:26.109Z,100.00
2022-10-23T04:34:52.639Z,100.00
2022-10-23T04:37:19.650Z,100.00
2022-10-23T04:39:46.435Z,100.00
2022-10-23T04:42:12.984Z,100.00
2022-10-23T04:44:39.460Z,100.00
2022-10-23T04:47:05.878Z,100.00
2022-10-23T04:49:32.270Z,100.00
2022-10-23T04:51:58.674Z,100.00
2022-10-23T04:54:25.240Z,100.00
2022-10-23T04:56:51.687Z,100.00
2022-10-23T04:59:18.111Z,100.00
2022-10-23T05:01:44.616Z,100.00
2022-10-23T05:04:11.115Z,100.00
2022-10-23T05:06:37.602Z,100.00
2022-10-23T05:09:04.127Z,100.00
2022-10-23T05:11:30.547Z,100.00
2022-10-23T05:13:57.028Z,100.00
2022-10-23T05:16:34.005Z,100.00
2022-10-23T05:19:01.139Z,100.00
2022-10-23T05:21:30.819Z,100.00
2022-10-23T05:23:57.595Z,100.00
2022-10-23T05:26:24.142Z,100.00
2022-10-23T05:28:50.547Z,100.00
2022-10-23T05:31:19.142Z,100.00
2022-10-23T05:33:45.700Z,100.00
2022-10-23T05:36:14.056Z,100.00
2022-10-23T05:38:40.904Z,100.00
2022-10-23T05:41:07.390Z,100.00
2022-10-23T05:43:33.848Z,100.00
2022-10-23T05:46:04.942Z,100.00
2022-10-23T05:48:35.627Z,100.00
2022-10-23T05:51:04.415Z,100.00
2022-10-23T05:53:30.871Z,100.00
2022-10-23T05:55:57.375Z,100.00
2022-10-23T05:58:23.813Z,100.00
2022-10-23T06:00:50.264Z,100.00
2022-10-23T06:03:16.696Z,100.00
2022-10-23T06:05:49.927Z,100.00
2022-10-23T06:08:16.400Z,100.00
2022-10-23T06:10:43.054Z,100.00
2022-10-23T06:13:09.921Z,100.00
2022-10-23T06:15:36.550Z,100.00
2022-10-23T06:18:04.821Z,100.00
2022-10-23T06:20:31.432Z,100.00
2022-10-23T06:22:57.876Z,100.00
2022-10-23T06:25:24.269Z,100.00
2022-10-23T06:27:51.134Z,100.00
2022-10-23T06:30:17.613Z,100.00
2022-10-23T06:32:44.412Z,100.00
2022-10-23T06:35:11.076Z,100.00
2022-10-23T06:37:37.645Z,100.00
2022-10-23T06:40:04.813Z,100.00
2022-10-23T06:42:31.264Z,100.00
2022-10-23T06:44:58.115Z,100.00
2022-10-23T06:47:24.670Z,100.00
2022-10-23T06:49:51.146Z,100.00
2022-10-23T06:52:41.664Z,100.00
2022-10-23T06:55:04.563Z,100.00
2022-10-23T06:57:31.005Z,100.00
2022-10-23T06:59:57.454Z,100.00
2022-10-23T07:02:23.925Z,100.00
2022-10-23T07:04:50.454Z,99.67
2022-10-23T07:07:17.160Z,99.93
2022-10-23T07:09:43.691Z,100.00
2022-10-23T07:12:10.138Z,99.69
2022-10-23T07:14:36.681Z,99.61
2022-10-23T07:17:03.194Z,99.37
2022-10-23T07:19:29.665Z,98.81
2022-10-23T07:21:56.211Z,98.60
2022-10-23T07:24:22.657Z,98.37
2022-10-23T07:29:20.476Z,97.59
2022-10-23T07:31:46.924Z,96.71
2022-10-23T07:34:13.367Z,95.50
2022-10-23T07:36:39.818Z,94.68
2022-10-23T07:39:06.326Z,93.74
2022-10-23T07:41:32.753Z,93.61
2022-10-23T07:43:59.294Z,93.70
2022-10-23T07:46:25.825Z,91.95
2022-10-23T07:48:52.302Z,91.74
2022-10-23T07:51:18.773Z,91.34
2022-10-23T07:53:45.780Z,88.78
2022-10-23T07:56:17.899Z,87.95
2022-10-23T07:58:44.391Z,86.03
2022-10-23T08:01:18.344Z,84.33
2022-10-23T08:03:45.617Z,83.41
2022-10-23T08:06:12.639Z,83.69
2022-10-23T08:08:39.171Z,82.59
2022-10-23T08:11:05.933Z,83.61
2022-10-23T08:13:32.410Z,80.38
2022-10-23T08:15:59.380Z,80.97
2022-10-23T08:18:25.848Z,80.51
2022-10-23T08:20:52.906Z,80.10
2022-10-23T08:23:19.901Z,79.12
2022-10-23T08:25:47.228Z,78.44
2022-10-23T08:28:13.930Z,78.14
2022-10-23T08:30:40.388Z,77.92
2022-10-23T08:33:07.592Z,77.95
2022-10-23T08:35:38.192Z,78.36
2022-10-23T08:38:05.271Z,78.53
2022-10-23T08:40:32.104Z,78.44
2022-10-23T08:43:10.573Z,78.01
2022-10-23T08:45:45.384Z,77.39
2022-10-23T08:48:26.144Z,77.04
2022-10-23T08:51:06.173Z,75.66
2022-10-23T08:53:50.391Z,76.43
2022-10-23T08:56:29.358Z,75.20
2022-10-23T08:59:01.913Z,75.21
2022-10-23T09:01:43.028Z,75.18
2022-10-23T09:04:14.509Z,73.83
2022-10-23T09:06:58.677Z,74.03
2022-10-23T09:10:01.517Z,73.70
2022-10-23T09:12:30.795Z,74.34
2022-10-23T09:15:25.444Z,74.35
2022-10-23T09:17:59.857Z,74.92
2022-10-23T09:20:34.144Z,74.68
2022-10-23T09:23:04.241Z,75.02
2022-10-23T09:25:35.459Z,74.61
2022-10-23T09:28:05.215Z,73.30
2022-10-23T09:30:37.917Z,74.12
2022-10-23T09:33:25.436Z,73.77
2022-10-23T09:35:59.227Z,74.59
2022-10-23T09:38:25.593Z,74.64
2022-10-23T09:40:52.021Z,74.92
2022-10-23T09:43:23.275Z,75.33
2022-10-23T09:46:16.188Z,73.54
2022-10-23T09:48:42.676Z,75.04
2022-10-23T09:51:21.673Z,74.91
2022-10-23T09:53:50.479Z,76.44
2022-10-23T09:56:35.694Z,76.91
2022-10-23T09:59:15.781Z,77.42
2022-10-23T10:01:54.874Z,78.08
2022-10-23T10:04:39.471Z,78.38
2022-10-23T10:07:18.830Z,77.64
2022-10-23T10:09:45.473Z,78.47
2022-10-23T10:12:20.877Z,78.14
2022-10-23T10:15:02.173Z,79.16
2022-10-23T10:17:34.724Z,78.17
2022-10-23T10:20:42.221Z,78.65
2022-10-23T10:23:42.784Z,79.44
2022-10-23T10:26:23.963Z,79.44
2022-10-23T10:29:05.200Z,79.23
2022-10-23T10:31:53.015Z,79.74
2022-10-23T10:34:41.963Z,79.91
2022-10-23T10:37:49.490Z,80.17
2022-10-23T10:40:19.271Z,80.06
2022-10-23T10:42:58.609Z,79.96
2022-10-23T10:45:30.867Z,80.22
2022-10-23T10:48:13.121Z,80.28
2022-10-23T10:51:03.085Z,79.94
2022-10-23T10:53:54.418Z,80.40
2022-10-23T10:56:26.170Z,80.16
2022-10-23T10:59:16.043Z,80.59
2022-10-23T11:01:50.826Z,80.40
2022-10-23T11:04:35.517Z,80.31
2022-10-23T11:07:19.222Z,80.42
2022-10-23T11:09:46.424Z,80.50
2022-10-23T11:12:26.296Z,80.00
2022-10-23T11:14:53.413Z,80.15
2022-10-23T11:17:31.618Z,80.00
2022-10-23T11:20:16.666Z,79.70
2022-10-23T11:22:54.957Z,79.68
2022-10-23T11:25:35.826Z,78.24
2022-10-23T11:28:19.298Z,77.34
2022-10-23T11:31:11.718Z,77.33
2022-10-23T11:33:57.113Z,76.24
2022-10-23T11:36:49.030Z,75.63
2022-10-23T11:39:27.566Z,75.25
2022-10-23T11:42:15.055Z,74.30
2022-10-23T11:44:49.561Z,74.01
2022-10-23T11:47:32.027Z,74.00
2022-10-23T11:50:07.436Z,73.67
2022-10-23T11:52:38.747Z,72.71
2022-10-23T11:55:21.630Z,72.74
2022-10-23T11:58:07.055Z,71.74
2022-10-23T12:00:38.814Z,71.83
2022-10-23T12:03:15.067Z,71.57
2022-10-23T12:05:44.482Z,70.93
2022-10-23T12:08:22.436Z,71.00
2022-10-23T12:10:58.692Z,70.19
2022-10-23T12:13:28.909Z,70.62
2022-10-23T12:15:58.504Z,71.24
2022-10-23T12:18:27.556Z,71.67
2022-10-23T12:21:01.152Z,71.94
2022-10-23T12:23:33.416Z,71.89
2022-10-23T12:26:09.001Z,72.21
2022-10-23T12:29:04.178Z,72.42
2022-10-23T12:31:44.262Z,72.57
2022-10-23T12:34:25.980Z,73.05
2022-10-23T12:37:08.854Z,73.32
2022-10-23T12:39:38.955Z,73.33
2022-10-23T12:42:12.138Z,73.25
2022-10-23T12:44:38.639Z,73.67
2022-10-23T12:47:05.341Z,73.87
2022-10-23T12:49:33.721Z,73.81
2022-10-23T12:52:03.791Z,74.09
2022-10-23T12:54:32.774Z,73.89
2022-10-23T12:56:59.823Z,73.86
2022-10-23T12:59:33.278Z,74.15
2022-10-23T13:01:59.961Z,74.30
2022-10-23T13:04:30.978Z,74.64
2022-10-23T13:07:00.638Z,74.57
2022-10-23T13:09:32.355Z,74.84
2022-10-23T13:12:02.313Z,75.51
2022-10-23T13:14:30.410Z,74.96
2022-10-23T13:17:08.506Z,75.44
2022-10-23T13:19:35.593Z,75.55
2022-10-23T13:22:06.278Z,75.45
2022-10-23T13:24:32.796Z,75.60
2022-10-23T13:26:59.303Z,75.63
2022-10-23T13:29:34.194Z,75.88
2022-10-23T13:32:26.953Z,76.60
2022-10-23T13:35:20.943Z,77.12
2022-10-23T13:37:48.913Z,77.50
2022-10-23T13:40:27.530Z,77.39
2022-10-23T13:42:55.769Z,77.79
2022-10-23T13:45:24.859Z,77.25
2022-10-23T13:47:51.814Z,77.47
2022-10-23T13:50:19.368Z,77.56
2022-10-23T13:52:45.924Z,77.67
2022-10-23T13:55:33.511Z,77.87
2022-10-23T13:57:59.959Z,77.90
2022-10-23T14:00:26.383Z,77.75
2022-10-23T14:02:52.840Z,77.25
2022-10-23T14:05:19.299Z,77.95
2022-10-23T14:07:46.014Z,77.79
2022-10-23T14:10:12.773Z,78.15
2022-10-23T14:12:41.480Z,78.23
2022-10-23T14:15:08.943Z,79.01
2022-10-23T14:17:35.892Z,78.78
2022-10-23T14:20:05.230Z,78.56
2022-10-23T14:22:32.598Z,78.48
2022-10-23T14:24:59.078Z,79.21
2022-10-23T14:27:25.573Z,78.53
2022-10-23T14:29:52.127Z,79.13
2022-10-23T14:32:18.636Z,78.70
2022-10-23T14:34:51.358Z,78.64
2022-10-23T14:37:19.501Z,78.71
2022-10-23T14:39:49.998Z,78.83
2022-10-23T14:42:17.365Z,78.89
2022-10-23T14:44:44.006Z,78.86
2022-10-23T14:47:10.692Z,79.82
2022-10-23T14:49:37.441Z,80.14
2022-10-23T14:52:04.001Z,80.92
2022-10-23T14:54:33.061Z,81.10
2022-10-23T14:56:59.464Z,81.30
2022-10-23T14:59:25.915Z,82.19
2022-10-23T15:04:24.086Z,81.92
2022-10-23T15:06:50.643Z,83.24
2022-10-23T15:09:19.778Z,82.78
2022-10-23T15:11:47.434Z,82.21
2022-10-23T15:14:14.161Z,82.69
2022-10-23T15:16:43.350Z,83.67
2022-10-23T15:19:18.169Z,84.37
2022-10-23T15:21:46.809Z,83.53
2022-10-23T15:24:13.461Z,83.86
2022-10-23T15:26:42.777Z,85.45
2022-10-23T15:29:10.048Z,86.12
2022-10-23T15:31:37.528Z,87.48
2022-10-23T15:34:08.558Z,87.14
2022-10-23T15:36:35.422Z,86.03
2022-10-23T15:39:05.377Z,87.41
2022-10-23T15:41:33.593Z,87.39
2022-10-23T15:44:01.412Z,85.95
2022-10-23T15:46:28.467Z,86.72
2022-10-23T15:48:54.981Z,86.04
2022-10-23T15:51:21.879Z,86.40
2022-10-23T15:53:48.625Z,86.45
2022-10-23T15:56:15.086Z,87.96
2022-10-23T15:58:41.623Z,87.24
2022-10-23T16:01:08.359Z,90.27
2022-10-23T16:03:38.758Z,91.36
2022-10-23T16:06:07.005Z,90.76
2022-10-23T16:08:33.846Z,90.36
2022-10-23T16:11:00.377Z,91.71
2022-10-23T16:13:27.631Z,91.92
2022-10-23T16:15:54.379Z,92.01
2022-10-23T16:18:21.658Z,93.50
2022-10-23T16:20:50.807Z,94.63
2022-10-23T16:23:17.525Z,94.76
2022-10-23T16:25:44.023Z,95.85
2022-10-23T16:28:10.485Z,96.32
2022-10-23T16:30:41.329Z,97.14
2022-10-23T16:33:08.071Z,95.22
2022-10-23T16:35:34.617Z,98.19
2022-10-23T16:38:01.127Z,98.48
2022-10-23T16:40:27.589Z,100.00
2022-10-23T16:42:54.065Z,99.29
2022-10-23T16:45:20.530Z,100.00
2022-10-23T16:47:47.002Z,100.00
2022-10-23T16:50:15.393Z,100.00
2022-10-23T16:52:42.774Z,100.00
2022-10-23T16:55:10.066Z,100.00
2022-10-23T16:57:36.797Z,100.00
2022-10-23T17:00:04.528Z,100.00
2022-10-23T17:02:31.107Z,100.00
2022-10-23T17:04:57.817Z,100.00
2022-10-23T17:07:24.489Z,100.00
2022-10-23T17:09:50.991Z,100.00
2022-10-23T17:12:18.119Z,100.00
2022-10-23T17:14:44.573Z,100.00
2022-10-23T17:17:11.063Z,100.00
2022-10-23T17:19:45.695Z,100.00
2022-10-23T17:22:13.355Z,99.94
2022-10-23T17:24:41.301Z,99.24
2022-10-23T17:27:07.848Z,98.03
2022-10-23T17:29:34.377Z,98.71
2022-10-23T17:32:01.044Z,96.43
2022-10-23T17:34:27.509Z,94.71
2022-10-23T17:36:55.104Z,93.60
2022-10-23T17:39:24.647Z,90.53
2022-10-23T17:41:52.006Z,89.87
2022-10-23T17:44:18.599Z,89.13
2022-10-23T17:46:45.041Z,89.35
2022-10-23T17:49:12.547Z,89.25
2022-10-23T17:51:39.116Z,87.85
2022-10-23T17:54:08.269Z,88.64
2022-10-23T17:56:37.580Z,87.76
2022-10-23T17:59:14.489Z,87.65
2022-10-23T18:01:43.759Z,86.41
2022-10-23T18:04:10.440Z,87.03
2022-10-23T18:06:42.894Z,87.36
2022-10-23T18:09:09.427Z,86.38
2022-10-23T18:11:41.456Z,86.31
2022-10-23T18:14:10.909Z,86.52
2022-10-23T18:16:37.852Z,86.94
2022-10-23T18:19:05.029Z,86.62
2022-10-23T18:21:32.066Z,86.99
2022-10-23T18:24:00.197Z,86.67
2022-10-23T18:26:30.157Z,87.16
2022-10-23T18:28:58.783Z,86.35
2022-10-23T18:31:27.461Z,85.59
2022-10-23T18:34:04.066Z,85.67
2022-10-23T18:36:33.159Z,85.95
2022-10-23T18:38:59.991Z,84.82
2022-10-23T18:41:27.258Z,85.38
2022-10-23T18:43:54.678Z,85.33
2022-10-23T18:46:21.806Z,84.68
2022-10-23T18:48:50.664Z,83.85
2022-10-23T18:51:18.904Z,84.57
2022-10-23T18:53:48.529Z,84.19
2022-10-23T18:56:21.510Z,84.06
2022-10-23T18:58:50.031Z,84.29
2022-10-23T19:01:17.331Z,84.44
2022-10-23T19:03:44.319Z,84.02
2022-10-23T19:06:10.995Z,83.71
2022-10-23T19:08:39.382Z,84.16
2022-10-23T19:11:07.450Z,83.29
2022-10-23T19:13:39.106Z,83.81
2022-10-23T19:16:12.786Z,83.18
2022-10-23T19:18:42.059Z,83.47
2022-10-23T19:21:09.266Z,83.71
2022-10-23T19:23:37.197Z,83.15
2022-10-23T19:26:09.249Z,83.65
2022-10-23T19:28:47.204Z,83.57
2022-10-23T19:31:14.163Z,84.19
2022-10-23T19:33:41.381Z,83.64
2022-10-23T19:36:12.654Z,83.69
2022-10-23T19:38:41.510Z,83.51
2022-10-23T19:41:08.093Z,83.70
2022-10-23T19:43:34.697Z,83.74
2022-10-23T19:46:04.976Z,84.13
2022-10-23T19:48:34.375Z,83.89
2022-10-23T19:51:01.398Z,84.28
2022-10-23T19:53:27.946Z,83.90
2022-10-23T19:56:06.091Z,83.49
2022-10-23T19:58:32.811Z,84.17
2022-10-23T20:00:59.521Z,84.25
2022-10-23T20:03:26.213Z,83.51
2022-10-23T20:05:52.671Z,83.61
2022-10-23T20:08:19.133Z,83.77
2022-10-23T20:10:47.859Z,83.77
2022-10-23T20:13:19.856Z,83.98
2022-10-23T20:15:46.521Z,83.95
2022-10-23T20:18:12.964Z,83.71
2022-10-23T20:20:41.346Z,83.44
2022-10-23T20:23:08.091Z,83.59
2022-10-23T20:25:34.616Z,83.26
2022-10-23T20:28:01.145Z,81.93
2022-10-23T20:30:27.668Z,81.32
2022-10-23T20:32:54.353Z,84.29
2022-10-23T20:35:20.869Z,84.85
2022-10-23T20:37:47.396Z,86.64
2022-10-23T20:40:13.882Z,86.63
2022-10-23T20:42:40.332Z,87.03
2022-10-23T20:45:07.311Z,86.84
2022-10-23T20:47:33.818Z,87.64
2022-10-23T20:50:00.320Z,87.36
2022-10-23T20:52:29.407Z,87.37
2022-10-23T20:54:55.875Z,87.58
2022-10-23T20:57:22.313Z,88.88
2022-10-23T20:59:48.755Z,88.40
2022-10-23T21:02:15.313Z,88.40
2022-10-23T21:04:41.918Z,88.06
2022-10-23T21:07:10.496Z,88.05
2022-10-23T21:09:38.006Z,87.72
2022-10-23T21:12:06.454Z,87.74
2022-10-23T21:14:33.144Z,87.97
2022-10-23T21:16:59.719Z,88.14
2022-10-23T21:19:26.181Z,88.18
2022-10-23T21:21:52.763Z,88.70
2022-10-23T21:24:19.383Z,88.80
2022-10-23T21:26:46.012Z,89.35
2022-10-23T21:29:18.542Z,88.67
2022-10-23T21:31:45.402Z,88.73
2022-10-23T21:34:12.068Z,89.24
2022-10-23T21:36:53.886Z,89.29
2022-10-23T21:39:25.187Z,89.41
2022-10-23T21:41:51.655Z,89.29
2022-10-23T21:44:18.167Z,88.88
2022-10-23T21:46:44.725Z,88.78
2022-10-23T21:49:11.766Z,89.05
2022-10-23T21:51:38.915Z,88.44
2022-10-23T21:54:10.301Z,88.74
2022-10-23T21:56:44.998Z,88.96
2022-10-23T21:59:14.504Z,88.83
2022-10-23T22:01:43.257Z,88.83
2022-10-23T22:04:10.969Z,89.25
2022-10-23T22:06:38.888Z,88.77
2022-10-23T22:09:06.377Z,88.42
2022-10-23T22:11:33.542Z,88.40
2022-10-23T22:14:00.887Z,88.00
2022-10-23T22:16:27.640Z,87.97
2022-10-23T22:18:54.149Z,87.97
2022-10-23T22:21:26.177Z,87.43
2022-10-23T22:23:55.722Z,87.07
2022-10-23T22:26:37.190Z,87.17
2022-10-23T22:29:09.328Z,87.07
2022-10-23T22:31:36.638Z,86.78
2022-10-23T22:34:18.516Z,86.84
2022-10-23T22:36:52.810Z,86.73
2022-10-23T22:39:19.217Z,86.28
2022-10-23T22:41:47.395Z,86.22
2022-10-23T22:44:17.450Z,86.15
2022-10-23T22:46:44.472Z,85.64
2022-10-23T22:49:11.174Z,85.31
2022-10-23T22:51:39.680Z,85.39
2022-10-23T22:54:06.495Z,85.20
2022-10-23T22:56:33.108Z,84.37
2022-10-23T22:58:59.551Z,84.55
2022-10-23T23:01:29.838Z,84.74
2022-10-23T23:04:04.282Z,83.50
2022-10-23T23:06:42.949Z,83.71
2022-10-23T23:09:11.239Z,84.33
2022-10-23T23:11:51.173Z,83.27
2022-10-23T23:14:22.040Z,83.27
2022-10-23T23:16:50.450Z,83.48
2022-10-23T23:19:16.882Z,83.68
2022-10-23T23:21:43.340Z,82.84
2022-10-23T23:24:11.632Z,83.17
2022-10-23T23:26:38.090Z,83.48
2022-10-23T23:29:04.521Z,83.04
2022-10-23T23:31:30.976Z,83.23
2022-10-23T23:33:57.473Z,83.04
2022-10-23T23:36:26.879Z,83.10
2022-10-23T23:38:55.148Z,83.09
2022-10-23T23:41:22.368Z,82.79
2022-10-23T23:43:49.299Z,83.48
2022-10-23T23:46:17.409Z,83.32
2022-10-23T23:48:47.822Z,82.80
2022-10-23T23:51:15.993Z,82.94
2022-10-23T23:53:42.502Z,82.88
2022-10-23T23:56:09.081Z,82.85
2022-10-23T23:58:35.649Z,82.68
